sensor_id;sensor_type;location;lat;lon;timestamp;P1;durP1;ratioP1;P2;durP2;ratioP2
25922;SDS011;13725;51.170;4.442;2023-12-22T00:02:20;20.63;;;2.90;;
25922;SDS011;13725;51.170;4.442;2023-12-22T00:04:48;17.70;;;3.03;;
25922;SDS011;13725;51.170;4.442;2023-12-22T00:07:14;26.98;;;3.65;;
25922;SDS011;13725;51.170;4.442;2023-12-22T00:09:39;24.05;;;3.75;;
25922;SDS011;13725;51.170;4.442;2023-12-22T00:12:05;18.33;;;3.35;;
25922;SDS011;13725;51.170;4.442;2023-12-22T00:14:31;22.65;;;3.08;;
25922;SDS011;13725;51.170;4.442;2023-12-22T00:16:57;31.15;;;3.30;;
25922;SDS011;13725;51.170;4.442;2023-12-22T00:19:23;18.67;;;2.78;;
25922;SDS011;13725;51.170;4.442;2023-12-22T00:21:49;18.13;;;2.80;;
25922;SDS011;13725;51.170;4.442;2023-12-22T00:24:14;15.15;;;2.65;;
25922;SDS011;13725;51.170;4.442;2023-12-22T00:26:40;16.30;;;2.95;;
25922;SDS011;13725;51.170;4.442;2023-12-22T00:29:06;19.23;;;2.88;;
25922;SDS011;13725;51.170;4.442;2023-12-22T00:31:32;20.40;;;2.60;;
25922;SDS011;13725;51.170;4.442;2023-12-22T00:33:57;26.08;;;4.43;;
25922;SDS011;13725;51.170;4.442;2023-12-22T00:36:23;17.30;;;2.35;;
25922;SDS011;13725;51.170;4.442;2023-12-22T00:38:49;23.33;;;2.53;;
25922;SDS011;13725;51.170;4.442;2023-12-22T00:41:15;17.00;;;2.65;;
25922;SDS011;13725;51.170;4.442;2023-12-22T00:43:41;30.05;;;3.80;;
25922;SDS011;13725;51.170;4.442;2023-12-22T00:46:07;21.70;;;2.70;;
25922;SDS011;13725;51.170;4.442;2023-12-22T00:48:33;20.45;;;2.63;;
25922;SDS011;13725;51.170;4.442;2023-12-22T00:50:58;12.95;;;2.45;;
25922;SDS011;13725;51.170;4.442;2023-12-22T00:53:24;21.55;;;3.22;;
25922;SDS011;13725;51.170;4.442;2023-12-22T00:55:50;11.70;;;2.80;;
25922;SDS011;13725;51.170;4.442;2023-12-22T00:58:16;20.58;;;3.45;;
25922;SDS011;13725;51.170;4.442;2023-12-22T01:00:42;25.33;;;3.63;;
25922;SDS011;13725;51.170;4.442;2023-12-22T01:03:07;18.13;;;2.85;;
25922;SDS011;13725;51.170;4.442;2023-12-22T01:05:33;27.77;;;3.42;;
25922;SDS011;13725;51.170;4.442;2023-12-22T01:07:59;29.30;;;2.97;;
25922;SDS011;13725;51.170;4.442;2023-12-22T01:10:25;25.48;;;4.90;;
25922;SDS011;13725;51.170;4.442;2023-12-22T01:12:50;24.33;;;3.13;;
25922;SDS011;13725;51.170;4.442;2023-12-22T01:15:16;25.13;;;3.60;;
25922;SDS011;13725;51.170;4.442;2023-12-22T01:17:42;18.58;;;3.17;;
25922;SDS011;13725;51.170;4.442;2023-12-22T01:20:08;23.38;;;2.70;;
25922;SDS011;13725;51.170;4.442;2023-12-22T01:22:34;26.83;;;2.88;;
25922;SDS011;13725;51.170;4.442;2023-12-22T01:25:03;20.83;;;2.53;;
25922;SDS011;13725;51.170;4.442;2023-12-22T01:27:30;24.95;;;3.38;;
25922;SDS011;13725;51.170;4.442;2023-12-22T01:29:56;21.52;;;4.40;;
25922;SDS011;13725;51.170;4.442;2023-12-22T01:32:22;34.58;;;3.92;;
25922;SDS011;13725;51.170;4.442;2023-12-22T01:34:48;28.92;;;4.65;;
25922;SDS011;13725;51.170;4.442;2023-12-22T01:37:13;26.50;;;3.88;;
25922;SDS011;13725;51.170;4.442;2023-12-22T01:39:39;33.75;;;4.28;;
25922;SDS011;13725;51.170;4.442;2023-12-22T01:42:05;17.80;;;3.15;;
25922;SDS011;13725;51.170;4.442;2023-12-22T01:44:30;28.35;;;3.28;;
25922;SDS011;13725;51.170;4.442;2023-12-22T01:46:56;19.65;;;3.90;;
25922;SDS011;13725;51.170;4.442;2023-12-22T01:49:23;23.95;;;3.28;;
25922;SDS011;13725;51.170;4.442;2023-12-22T01:51:50;23.70;;;3.55;;
25922;SDS011;13725;51.170;4.442;2023-12-22T01:54:17;26.50;;;3.17;;
25922;SDS011;13725;51.170;4.442;2023-12-22T01:56:44;25.63;;;2.92;;
25922;SDS011;13725;51.170;4.442;2023-12-22T01:59:10;22.55;;;3.67;;
25922;SDS011;13725;51.170;4.442;2023-12-22T02:01:37;22.17;;;3.65;;
25922;SDS011;13725;51.170;4.442;2023-12-22T02:04:04;18.98;;;3.05;;
25922;SDS011;13725;51.170;4.442;2023-12-22T02:06:31;20.95;;;3.70;;
25922;SDS011;13725;51.170;4.442;2023-12-22T02:09:00;18.77;;;2.95;;
25922;SDS011;13725;51.170;4.442;2023-12-22T02:11:28;20.15;;;2.67;;
25922;SDS011;13725;51.170;4.442;2023-12-22T02:13:53;24.20;;;3.20;;
25922;SDS011;13725;51.170;4.442;2023-12-22T02:19:29;26.10;;;3.63;;
25922;SDS011;13725;51.170;4.442;2023-12-22T02:22:05;18.75;;;2.70;;
25922;SDS011;13725;51.170;4.442;2023-12-22T02:24:32;28.58;;;3.90;;
25922;SDS011;13725;51.170;4.442;2023-12-22T02:27:21;18.33;;;3.10;;
25922;SDS011;13725;51.170;4.442;2023-12-22T02:30:24;14.02;;;2.92;;
25922;SDS011;13725;51.170;4.442;2023-12-22T02:32:57;22.45;;;3.47;;
25922;SDS011;13725;51.170;4.442;2023-12-22T02:35:26;19.25;;;2.70;;
25922;SDS011;13725;51.170;4.442;2023-12-22T02:37:53;14.27;;;3.15;;
25922;SDS011;13725;51.170;4.442;2023-12-22T02:40:23;25.05;;;3.42;;
25922;SDS011;13725;51.170;4.442;2023-12-22T02:42:51;19.40;;;2.97;;
25922;SDS011;13725;51.170;4.442;2023-12-22T02:45:18;21.00;;;2.65;;
25922;SDS011;13725;51.170;4.442;2023-12-22T02:47:44;30.98;;;2.83;;
25922;SDS011;13725;51.170;4.442;2023-12-22T02:50:11;19.83;;;3.20;;
25922;SDS011;13725;51.170;4.442;2023-12-22T02:52:41;27.58;;;2.92;;
25922;SDS011;13725;51.170;4.442;2023-12-22T02:55:07;20.33;;;2.55;;
25922;SDS011;13725;51.170;4.442;2023-12-22T02:57:33;22.38;;;3.00;;
25922;SDS011;13725;51.170;4.442;2023-12-22T02:59:59;18.25;;;3.17;;
25922;SDS011;13725;51.170;4.442;2023-12-22T03:02:25;22.13;;;2.50;;
25922;SDS011;13725;51.170;4.442;2023-12-22T03:04:51;23.33;;;3.60;;
25922;SDS011;13725;51.170;4.442;2023-12-22T03:07:17;16.92;;;2.88;;
25922;SDS011;13725;51.170;4.442;2023-12-22T03:09:43;14.90;;;2.85;;
25922;SDS011;13725;51.170;4.442;2023-12-22T03:12:09;17.67;;;3.00;;
25922;SDS011;13725;51.170;4.442;2023-12-22T03:14:35;23.58;;;3.13;;
25922;SDS011;13725;51.170;4.442;2023-12-22T03:17:02;20.55;;;4.15;;
25922;SDS011;13725;51.170;4.442;2023-12-22T03:19:29;18.40;;;2.92;;
25922;SDS011;13725;51.170;4.442;2023-12-22T03:21:56;25.25;;;3.50;;
25922;SDS011;13725;51.170;4.442;2023-12-22T03:24:25;22.63;;;3.35;;
25922;SDS011;13725;51.170;4.442;2023-12-22T03:26:53;19.05;;;3.28;;
25922;SDS011;13725;51.170;4.442;2023-12-22T03:29:18;23.75;;;4.10;;
25922;SDS011;13725;51.170;4.442;2023-12-22T03:31:44;29.52;;;3.63;;
25922;SDS011;13725;51.170;4.442;2023-12-22T03:34:10;27.65;;;3.85;;
25922;SDS011;13725;51.170;4.442;2023-12-22T03:36:36;15.93;;;2.90;;
25922;SDS011;13725;51.170;4.442;2023-12-22T03:39:02;20.80;;;3.90;;
25922;SDS011;13725;51.170;4.442;2023-12-22T03:41:28;30.42;;;4.05;;
25922;SDS011;13725;51.170;4.442;2023-12-22T03:43:55;22.15;;;4.22;;
25922;SDS011;13725;51.170;4.442;2023-12-22T03:46:21;27.63;;;4.53;;
25922;SDS011;13725;51.170;4.442;2023-12-22T03:48:48;27.27;;;3.83;;
25922;SDS011;13725;51.170;4.442;2023-12-22T03:51:14;29.23;;;3.83;;
25922;SDS011;13725;51.170;4.442;2023-12-22T03:53:40;22.98;;;3.53;;
25922;SDS011;13725;51.170;4.442;2023-12-22T03:56:07;26.85;;;4.15;;
25922;SDS011;13725;51.170;4.442;2023-12-22T03:58:34;22.83;;;3.85;;
25922;SDS011;13725;51.170;4.442;2023-12-22T04:01:00;40.53;;;6.40;;
25922;SDS011;13725;51.170;4.442;2023-12-22T04:03:26;23.65;;;3.95;;
25922;SDS011;13725;51.170;4.442;2023-12-22T04:05:51;32.53;;;5.43;;
25922;SDS011;13725;51.170;4.442;2023-12-22T04:08:17;24.80;;;3.58;;
25922;SDS011;13725;51.170;4.442;2023-12-22T04:10:43;37.45;;;5.90;;
25922;SDS011;13725;51.170;4.442;2023-12-22T04:13:09;18.90;;;3.30;;
25922;SDS011;13725;51.170;4.442;2023-12-22T04:15:35;35.42;;;4.03;;
25922;SDS011;13725;51.170;4.442;2023-12-22T04:18:01;24.20;;;4.30;;
25922;SDS011;13725;51.170;4.442;2023-12-22T04:20:26;25.15;;;4.72;;
25922;SDS011;13725;51.170;4.442;2023-12-22T04:22:52;31.00;;;4.30;;
25922;SDS011;13725;51.170;4.442;2023-12-22T04:25:18;24.70;;;4.00;;
25922;SDS011;13725;51.170;4.442;2023-12-22T04:27:44;30.17;;;4.03;;
25922;SDS011;13725;51.170;4.442;2023-12-22T04:30:10;21.20;;;3.95;;
25922;SDS011;13725;51.170;4.442;2023-12-22T04:32:36;30.15;;;4.00;;
25922;SDS011;13725;51.170;4.442;2023-12-22T04:35:02;22.80;;;3.50;;
25922;SDS011;13725;51.170;4.442;2023-12-22T04:37:28;29.70;;;4.35;;
25922;SDS011;13725;51.170;4.442;2023-12-22T04:39:54;32.00;;;4.13;;
25922;SDS011;13725;51.170;4.442;2023-12-22T04:42:19;36.25;;;5.28;;
25922;SDS011;13725;51.170;4.442;2023-12-22T04:44:45;26.75;;;4.07;;
25922;SDS011;13725;51.170;4.442;2023-12-22T04:47:11;29.55;;;3.97;;
25922;SDS011;13725;51.170;4.442;2023-12-22T04:49:38;28.60;;;4.15;;
25922;SDS011;13725;51.170;4.442;2023-12-22T04:52:03;29.92;;;4.57;;
25922;SDS011;13725;51.170;4.442;2023-12-22T04:54:29;37.47;;;5.50;;
25922;SDS011;13725;51.170;4.442;2023-12-22T04:56:55;35.80;;;5.35;;
25922;SDS011;13725;51.170;4.442;2023-12-22T04:59:22;34.13;;;4.53;;
25922;SDS011;13725;51.170;4.442;2023-12-22T05:01:48;28.67;;;5.80;;
25922;SDS011;13725;51.170;4.442;2023-12-22T05:04:13;40.80;;;5.35;;
25922;SDS011;13725;51.170;4.442;2023-12-22T05:06:39;35.80;;;5.60;;
25922;SDS011;13725;51.170;4.442;2023-12-22T05:09:05;54.95;;;5.20;;
25922;SDS011;13725;51.170;4.442;2023-12-22T05:11:30;37.20;;;4.85;;
25922;SDS011;13725;51.170;4.442;2023-12-22T05:13:56;37.08;;;4.68;;
25922;SDS011;13725;51.170;4.442;2023-12-22T05:16:22;35.50;;;4.82;;
25922;SDS011;13725;51.170;4.442;2023-12-22T05:18:47;28.77;;;4.32;;
25922;SDS011;13725;51.170;4.442;2023-12-22T05:21:13;33.42;;;6.05;;
25922;SDS011;13725;51.170;4.442;2023-12-22T05:23:39;27.08;;;4.47;;
25922;SDS011;13725;51.170;4.442;2023-12-22T05:26:05;35.33;;;5.55;;
25922;SDS011;13725;51.170;4.442;2023-12-22T05:28:32;26.60;;;5.22;;
25922;SDS011;13725;51.170;4.442;2023-12-22T05:30:58;29.10;;;5.30;;
25922;SDS011;13725;51.170;4.442;2023-12-22T05:33:25;26.60;;;4.97;;
25922;SDS011;13725;51.170;4.442;2023-12-22T05:35:51;34.97;;;5.18;;
25922;SDS011;13725;51.170;4.442;2023-12-22T05:38:17;41.38;;;5.43;;
25922;SDS011;13725;51.170;4.442;2023-12-22T05:40:43;33.78;;;4.80;;
25922;SDS011;13725;51.170;4.442;2023-12-22T05:43:08;32.72;;;4.45;;
25922;SDS011;13725;51.170;4.442;2023-12-22T05:45:34;33.30;;;4.45;;
25922;SDS011;13725;51.170;4.442;2023-12-22T05:48:00;31.80;;;5.05;;
25922;SDS011;13725;51.170;4.442;2023-12-22T05:50:26;27.70;;;4.60;;
25922;SDS011;13725;51.170;4.442;2023-12-22T05:52:51;42.53;;;5.72;;
25922;SDS011;13725;51.170;4.442;2023-12-22T05:55:17;34.63;;;4.68;;
25922;SDS011;13725;51.170;4.442;2023-12-22T05:57:43;37.63;;;4.90;;
25922;SDS011;13725;51.170;4.442;2023-12-22T06:00:09;35.25;;;4.78;;
25922;SDS011;13725;51.170;4.442;2023-12-22T06:02:36;27.17;;;4.13;;
25922;SDS011;13725;51.170;4.442;2023-12-22T06:05:02;27.10;;;4.38;;
25922;SDS011;13725;51.170;4.442;2023-12-22T06:07:28;31.80;;;4.78;;
25922;SDS011;13725;51.170;4.442;2023-12-22T06:09:54;40.30;;;4.80;;
25922;SDS011;13725;51.170;4.442;2023-12-22T06:12:19;31.63;;;5.18;;
25922;SDS011;13725;51.170;4.442;2023-12-22T06:14:45;31.17;;;4.47;;
25922;SDS011;13725;51.170;4.442;2023-12-22T06:17:11;26.00;;;4.47;;
25922;SDS011;13725;51.170;4.442;2023-12-22T06:19:37;32.78;;;4.55;;
25922;SDS011;13725;51.170;4.442;2023-12-22T06:22:02;29.20;;;4.88;;
25922;SDS011;13725;51.170;4.442;2023-12-22T06:24:28;28.95;;;3.90;;
25922;SDS011;13725;51.170;4.442;2023-12-22T06:26:54;28.48;;;4.20;;
25922;SDS011;13725;51.170;4.442;2023-12-22T06:29:20;20.48;;;3.78;;
25922;SDS011;13725;51.170;4.442;2023-12-22T06:31:45;27.42;;;3.97;;
25922;SDS011;13725;51.170;4.442;2023-12-22T06:34:16;24.45;;;4.20;;
25922;SDS011;13725;51.170;4.442;2023-12-22T06:36:42;22.73;;;3.97;;
25922;SDS011;13725;51.170;4.442;2023-12-22T06:39:08;29.92;;;3.55;;
25922;SDS011;13725;51.170;4.442;2023-12-22T06:41:34;31.95;;;3.53;;
25922;SDS011;13725;51.170;4.442;2023-12-22T06:44:00;27.13;;;3.75;;
25922;SDS011;13725;51.170;4.442;2023-12-22T06:46:26;21.17;;;3.25;;
25922;SDS011;13725;51.170;4.442;2023-12-22T06:48:52;17.58;;;3.40;;
25922;SDS011;13725;51.170;4.442;2023-12-22T06:51:29;18.13;;;3.33;;
25922;SDS011;13725;51.170;4.442;2023-12-22T06:53:56;20.83;;;3.28;;
25922;SDS011;13725;51.170;4.442;2023-12-22T06:56:23;20.67;;;3.15;;
25922;SDS011;13725;51.170;4.442;2023-12-22T06:58:50;16.85;;;2.70;;
25922;SDS011;13725;51.170;4.442;2023-12-22T07:01:20;16.58;;;2.72;;
25922;SDS011;13725;51.170;4.442;2023-12-22T07:03:48;13.50;;;3.00;;
25922;SDS011;13725;51.170;4.442;2023-12-22T07:06:15;15.98;;;3.00;;
25922;SDS011;13725;51.170;4.442;2023-12-22T07:08:44;20.55;;;2.70;;
25922;SDS011;13725;51.170;4.442;2023-12-22T07:11:22;20.80;;;2.45;;
25922;SDS011;13725;51.170;4.442;2023-12-22T07:13:48;17.63;;;2.40;;
25922;SDS011;13725;51.170;4.442;2023-12-22T07:16:14;11.02;;;1.92;;
25922;SDS011;13725;51.170;4.442;2023-12-22T07:18:40;15.43;;;2.42;;
25922;SDS011;13725;51.170;4.442;2023-12-22T07:21:06;22.20;;;2.70;;
25922;SDS011;13725;51.170;4.442;2023-12-22T07:23:32;22.70;;;3.55;;
25922;SDS011;13725;51.170;4.442;2023-12-22T07:25:58;9.80;;;1.73;;
25922;SDS011;13725;51.170;4.442;2023-12-22T07:28:24;22.90;;;2.70;;
25922;SDS011;13725;51.170;4.442;2023-12-22T07:30:49;16.52;;;2.50;;
25922;SDS011;13725;51.170;4.442;2023-12-22T07:33:15;19.17;;;2.58;;
25922;SDS011;13725;51.170;4.442;2023-12-22T07:35:41;11.90;;;2.50;;
25922;SDS011;13725;51.170;4.442;2023-12-22T07:38:07;17.17;;;2.70;;
25922;SDS011;13725;51.170;4.442;2023-12-22T07:40:34;18.50;;;2.78;;
25922;SDS011;13725;51.170;4.442;2023-12-22T07:43:00;21.92;;;2.95;;
25922;SDS011;13725;51.170;4.442;2023-12-22T07:45:26;19.73;;;3.15;;
25922;SDS011;13725;51.170;4.442;2023-12-22T07:47:53;21.10;;;3.63;;
25922;SDS011;13725;51.170;4.442;2023-12-22T07:50:19;29.20;;;3.33;;
25922;SDS011;13725;51.170;4.442;2023-12-22T07:52:46;29.98;;;5.53;;
25922;SDS011;13725;51.170;4.442;2023-12-22T07:55:12;29.90;;;3.85;;
25922;SDS011;13725;51.170;4.442;2023-12-22T07:57:40;18.35;;;3.53;;
25922;SDS011;13725;51.170;4.442;2023-12-22T08:00:06;18.75;;;3.33;;
25922;SDS011;13725;51.170;4.442;2023-12-22T08:02:40;28.20;;;4.18;;
25922;SDS011;13725;51.170;4.442;2023-12-22T08:05:06;19.98;;;3.78;;
25922;SDS011;13725;51.170;4.442;2023-12-22T08:07:31;25.92;;;3.30;;
25922;SDS011;13725;51.170;4.442;2023-12-22T08:09:57;19.38;;;3.10;;
25922;SDS011;13725;51.170;4.442;2023-12-22T08:12:23;25.75;;;3.83;;
25922;SDS011;13725;51.170;4.442;2023-12-22T08:14:49;21.63;;;3.58;;
25922;SDS011;13725;51.170;4.442;2023-12-22T08:17:14;21.80;;;3.55;;
25922;SDS011;13725;51.170;4.442;2023-12-22T08:19:40;17.17;;;3.03;;
25922;SDS011;13725;51.170;4.442;2023-12-22T08:22:09;13.98;;;2.80;;
25922;SDS011;13725;51.170;4.442;2023-12-22T08:24:35;11.38;;;3.13;;
25922;SDS011;13725;51.170;4.442;2023-12-22T08:27:01;21.67;;;4.47;;
25922;SDS011;13725;51.170;4.442;2023-12-22T08:29:27;12.05;;;3.00;;
25922;SDS011;13725;51.170;4.442;2023-12-22T08:31:53;10.32;;;3.13;;
25922;SDS011;13725;51.170;4.442;2023-12-22T08:34:19;10.32;;;3.30;;
25922;SDS011;13725;51.170;4.442;2023-12-22T08:36:45;16.48;;;3.65;;
25922;SDS011;13725;51.170;4.442;2023-12-22T08:39:11;18.52;;;3.50;;
25922;SDS011;13725;51.170;4.442;2023-12-22T08:41:37;12.55;;;3.60;;
25922;SDS011;13725;51.170;4.442;2023-12-22T08:44:04;12.45;;;4.22;;
25922;SDS011;13725;51.170;4.442;2023-12-22T08:46:30;13.98;;;3.95;;
25922;SDS011;13725;51.170;4.442;2023-12-22T08:48:56;13.85;;;3.90;;
25922;SDS011;13725;51.170;4.442;2023-12-22T08:51:24;7.18;;;3.47;;
25922;SDS011;13725;51.170;4.442;2023-12-22T08:53:53;19.83;;;5.30;;
25922;SDS011;13725;51.170;4.442;2023-12-22T08:56:22;6.78;;;2.90;;
25922;SDS011;13725;51.170;4.442;2023-12-22T08:58:50;8.77;;;2.97;;
25922;SDS011;13725;51.170;4.442;2023-12-22T09:01:17;14.55;;;3.08;;
25922;SDS011;13725;51.170;4.442;2023-12-22T09:03:44;11.93;;;2.72;;
25922;SDS011;13725;51.170;4.442;2023-12-22T09:06:21;11.75;;;2.30;;
25922;SDS011;13725;51.170;4.442;2023-12-22T09:08:47;7.97;;;2.47;;
25922;SDS011;13725;51.170;4.442;2023-12-22T09:11:16;8.25;;;2.13;;
25922;SDS011;13725;51.170;4.442;2023-12-22T09:13:43;7.30;;;2.10;;
25922;SDS011;13725;51.170;4.442;2023-12-22T09:16:09;12.55;;;2.10;;
25922;SDS011;13725;51.170;4.442;2023-12-22T09:18:35;9.98;;;2.30;;
25922;SDS011;13725;51.170;4.442;2023-12-22T09:21:01;9.75;;;2.15;;
25922;SDS011;13725;51.170;4.442;2023-12-22T09:23:28;5.78;;;1.60;;
25922;SDS011;13725;51.170;4.442;2023-12-22T09:25:56;9.25;;;1.80;;
25922;SDS011;13725;51.170;4.442;2023-12-22T09:28:23;8.15;;;1.88;;
25922;SDS011;13725;51.170;4.442;2023-12-22T09:30:50;7.28;;;1.20;;
25922;SDS011;13725;51.170;4.442;2023-12-22T09:33:16;8.13;;;1.83;;
25922;SDS011;13725;51.170;4.442;2023-12-22T09:35:42;8.98;;;1.75;;
25922;SDS011;13725;51.170;4.442;2023-12-22T09:38:08;10.35;;;1.60;;
25922;SDS011;13725;51.170;4.442;2023-12-22T09:40:37;3.75;;;1.50;;
25922;SDS011;13725;51.170;4.442;2023-12-22T09:43:04;4.85;;;1.60;;
25922;SDS011;13725;51.170;4.442;2023-12-22T09:45:33;7.60;;;1.85;;
25922;SDS011;13725;51.170;4.442;2023-12-22T09:48:02;8.73;;;1.60;;
25922;SDS011;13725;51.170;4.442;2023-12-22T09:50:30;5.95;;;1.83;;
25922;SDS011;13725;51.170;4.442;2023-12-22T09:52:56;10.32;;;2.28;;
25922;SDS011;13725;51.170;4.442;2023-12-22T09:55:22;13.38;;;2.70;;
25922;SDS011;13725;51.170;4.442;2023-12-22T09:57:49;17.55;;;2.60;;
25922;SDS011;13725;51.170;4.442;2023-12-22T10:00:15;11.68;;;2.42;;
25922;SDS011;13725;51.170;4.442;2023-12-22T10:02:42;8.82;;;1.45;;
25922;SDS011;13725;51.170;4.442;2023-12-22T10:05:10;13.70;;;2.47;;
25922;SDS011;13725;51.170;4.442;2023-12-22T10:07:38;9.43;;;2.10;;
25922;SDS011;13725;51.170;4.442;2023-12-22T10:10:07;14.88;;;2.15;;
25922;SDS011;13725;51.170;4.442;2023-12-22T10:12:34;7.32;;;1.80;;
25922;SDS011;13725;51.170;4.442;2023-12-22T10:15:03;9.70;;;2.00;;
25922;SDS011;13725;51.170;4.442;2023-12-22T10:17:31;6.63;;;1.52;;
25922;SDS011;13725;51.170;4.442;2023-12-22T10:19:57;14.40;;;1.77;;
25922;SDS011;13725;51.170;4.442;2023-12-22T10:22:23;6.45;;;1.15;;
25922;SDS011;13725;51.170;4.442;2023-12-22T10:24:50;14.45;;;1.67;;
25922;SDS011;13725;51.170;4.442;2023-12-22T10:27:16;8.02;;;1.63;;
25922;SDS011;13725;51.170;4.442;2023-12-22T10:29:57;19.20;;;1.60;;
25922;SDS011;13725;51.170;4.442;2023-12-22T10:32:23;4.72;;;1.48;;
25922;SDS011;13725;51.170;4.442;2023-12-22T10:34:52;13.75;;;1.60;;
25922;SDS011;13725;51.170;4.442;2023-12-22T10:37:18;12.27;;;1.55;;
25922;SDS011;13725;51.170;4.442;2023-12-22T10:39:44;7.68;;;1.30;;
25922;SDS011;13725;51.170;4.442;2023-12-22T10:42:13;7.35;;;1.15;;
25922;SDS011;13725;51.170;4.442;2023-12-22T10:44:40;11.93;;;1.55;;
25922;SDS011;13725;51.170;4.442;2023-12-22T10:47:06;12.52;;;1.55;;
25922;SDS011;13725;51.170;4.442;2023-12-22T10:49:32;7.75;;;1.35;;
25922;SDS011;13725;51.170;4.442;2023-12-22T10:51:59;8.07;;;1.42;;
25922;SDS011;13725;51.170;4.442;2023-12-22T10:54:25;12.07;;;2.08;;
25922;SDS011;13725;51.170;4.442;2023-12-22T10:56:51;7.40;;;1.13;;
25922;SDS011;13725;51.170;4.442;2023-12-22T10:59:22;4.97;;;1.10;;
25922;SDS011;13725;51.170;4.442;2023-12-22T11:01:48;10.48;;;1.35;;
25922;SDS011;13725;51.170;4.442;2023-12-22T11:04:17;9.73;;;2.00;;
25922;SDS011;13725;51.170;4.442;2023-12-22T11:06:46;6.78;;;1.33;;
25922;SDS011;13725;51.170;4.442;2023-12-22T11:09:15;4.32;;;1.35;;
25922;SDS011;13725;51.170;4.442;2023-12-22T11:11:42;15.07;;;1.45;;
25922;SDS011;13725;51.170;4.442;2023-12-22T11:14:09;12.35;;;1.85;;
25922;SDS011;13725;51.170;4.442;2023-12-22T11:16:36;8.23;;;1.38;;
25922;SDS011;13725;51.170;4.442;2023-12-22T11:19:03;7.65;;;1.80;;
25922;SDS011;13725;51.170;4.442;2023-12-22T11:21:29;7.72;;;1.80;;
25922;SDS011;13725;51.170;4.442;2023-12-22T11:23:56;12.48;;;1.60;;
25922;SDS011;13725;51.170;4.442;2023-12-22T11:26:23;9.95;;;1.45;;
25922;SDS011;13725;51.170;4.442;2023-12-22T11:28:50;7.57;;;2.47;;
25922;SDS011;13725;51.170;4.442;2023-12-22T11:31:17;6.32;;;1.10;;
25922;SDS011;13725;51.170;4.442;2023-12-22T11:33:43;9.60;;;1.55;;
25922;SDS011;13725;51.170;4.442;2023-12-22T11:36:11;9.30;;;1.63;;
25922;SDS011;13725;51.170;4.442;2023-12-22T11:38:37;9.65;;;1.77;;
25922;SDS011;13725;51.170;4.442;2023-12-22T11:41:04;18.13;;;1.90;;
25922;SDS011;13725;51.170;4.442;2023-12-22T11:43:34;14.82;;;1.75;;
25922;SDS011;13725;51.170;4.442;2023-12-22T11:46:02;7.20;;;1.42;;
25922;SDS011;13725;51.170;4.442;2023-12-22T11:48:28;12.35;;;1.52;;
25922;SDS011;13725;51.170;4.442;2023-12-22T11:50:55;9.30;;;1.33;;
25922;SDS011;13725;51.170;4.442;2023-12-22T11:53:21;14.43;;;1.88;;
25922;SDS011;13725;51.170;4.442;2023-12-22T11:56:07;9.95;;;1.90;;
25922;SDS011;13725;51.170;4.442;2023-12-22T11:58:46;14.32;;;1.33;;
25922;SDS011;13725;51.170;4.442;2023-12-22T12:01:24;7.43;;;1.83;;
25922;SDS011;13725;51.170;4.442;2023-12-22T12:03:51;9.75;;;2.05;;
25922;SDS011;13725;51.170;4.442;2023-12-22T12:08:53;15.27;;;1.73;;
25922;SDS011;13725;51.170;4.442;2023-12-22T12:11:20;11.73;;;1.23;;
25922;SDS011;13725;51.170;4.442;2023-12-22T12:13:46;7.93;;;1.58;;
25922;SDS011;13725;51.170;4.442;2023-12-22T12:16:13;9.63;;;1.20;;
25922;SDS011;13725;51.170;4.442;2023-12-22T12:18:44;9.70;;;1.33;;
25922;SDS011;13725;51.170;4.442;2023-12-22T12:21:10;13.40;;;1.20;;
25922;SDS011;13725;51.170;4.442;2023-12-22T12:23:36;5.00;;;1.10;;
25922;SDS011;13725;51.170;4.442;2023-12-22T12:26:08;8.27;;;1.50;;
25922;SDS011;13725;51.170;4.442;2023-12-22T12:28:34;7.80;;;1.50;;
25922;SDS011;13725;51.170;4.442;2023-12-22T12:31:05;9.52;;;1.30;;
25922;SDS011;13725;51.170;4.442;2023-12-22T12:33:31;8.55;;;1.33;;
25922;SDS011;13725;51.170;4.442;2023-12-22T12:36:00;8.70;;;1.30;;
25922;SDS011;13725;51.170;4.442;2023-12-22T12:41:04;10.85;;;1.55;;
25922;SDS011;13725;51.170;4.442;2023-12-22T12:43:32;6.88;;;1.58;;
25922;SDS011;13725;51.170;4.442;2023-12-22T12:46:05;8.98;;;2.80;;
25922;SDS011;13725;51.170;4.442;2023-12-22T12:48:30;11.23;;;1.00;;
25922;SDS011;13725;51.170;4.442;2023-12-22T12:51:01;8.50;;;1.02;;
25922;SDS011;13725;51.170;4.442;2023-12-22T12:53:33;4.90;;;1.27;;
25922;SDS011;13725;51.170;4.442;2023-12-22T12:56:01;5.40;;;1.48;;
25922;SDS011;13725;51.170;4.442;2023-12-22T12:58:30;16.80;;;2.88;;
25922;SDS011;13725;51.170;4.442;2023-12-22T13:01:09;11.40;;;2.85;;
25922;SDS011;13725;51.170;4.442;2023-12-22T13:03:54;11.23;;;1.73;;
25922;SDS011;13725;51.170;4.442;2023-12-22T13:06:21;5.65;;;1.00;;
25922;SDS011;13725;51.170;4.442;2023-12-22T13:08:50;10.40;;;1.73;;
25922;SDS011;13725;51.170;4.442;2023-12-22T13:11:24;4.38;;;1.10;;
25922;SDS011;13725;51.170;4.442;2023-12-22T13:13:52;7.78;;;1.20;;
25922;SDS011;13725;51.170;4.442;2023-12-22T13:16:22;6.78;;;1.45;;
25922;SDS011;13725;51.170;4.442;2023-12-22T13:18:54;10.68;;;2.08;;
25922;SDS011;13725;51.170;4.442;2023-12-22T13:21:22;6.15;;;1.33;;
25922;SDS011;13725;51.170;4.442;2023-12-22T13:24:07;6.32;;;1.20;;
25922;SDS011;13725;51.170;4.442;2023-12-22T13:26:33;7.68;;;1.77;;
25922;SDS011;13725;51.170;4.442;2023-12-22T13:28:59;8.27;;;1.63;;
25922;SDS011;13725;51.170;4.442;2023-12-22T13:31:25;8.45;;;1.00;;
25922;SDS011;13725;51.170;4.442;2023-12-22T13:33:52;7.13;;;1.25;;
25922;SDS011;13725;51.170;4.442;2023-12-22T13:36:17;4.35;;;1.00;;
25922;SDS011;13725;51.170;4.442;2023-12-22T13:38:47;13.10;;;1.40;;
25922;SDS011;13725;51.170;4.442;2023-12-22T13:41:13;10.13;;;1.55;;
25922;SDS011;13725;51.170;4.442;2023-12-22T13:43:40;7.47;;;2.05;;
25922;SDS011;13725;51.170;4.442;2023-12-22T13:46:07;7.95;;;1.67;;
25922;SDS011;13725;51.170;4.442;2023-12-22T13:48:36;6.85;;;1.45;;
25922;SDS011;13725;51.170;4.442;2023-12-22T13:51:02;8.98;;;1.42;;
25922;SDS011;13725;51.170;4.442;2023-12-22T13:53:28;8.50;;;1.45;;
25922;SDS011;13725;51.170;4.442;2023-12-22T13:55:58;6.50;;;1.10;;
25922;SDS011;13725;51.170;4.442;2023-12-22T13:58:25;10.90;;;1.63;;
25922;SDS011;13725;51.170;4.442;2023-12-22T14:00:51;11.13;;;1.85;;
25922;SDS011;13725;51.170;4.442;2023-12-22T14:03:18;5.80;;;1.00;;
25922;SDS011;13725;51.170;4.442;2023-12-22T14:05:50;8.02;;;1.30;;
25922;SDS011;13725;51.170;4.442;2023-12-22T14:08:18;11.82;;;1.58;;
25922;SDS011;13725;51.170;4.442;2023-12-22T14:10:47;7.40;;;1.27;;
25922;SDS011;13725;51.170;4.442;2023-12-22T14:13:14;13.38;;;1.30;;
25922;SDS011;13725;51.170;4.442;2023-12-22T14:15:43;8.45;;;1.05;;
25922;SDS011;13725;51.170;4.442;2023-12-22T14:18:11;2.53;;;0.90;;
25922;SDS011;13725;51.170;4.442;2023-12-22T14:20:36;13.50;;;1.92;;
25922;SDS011;13725;51.170;4.442;2023-12-22T14:23:02;11.00;;;2.47;;
25922;SDS011;13725;51.170;4.442;2023-12-22T14:25:29;10.07;;;1.52;;
25922;SDS011;13725;51.170;4.442;2023-12-22T14:27:56;7.35;;;1.25;;
25922;SDS011;13725;51.170;4.442;2023-12-22T14:30:23;9.15;;;1.48;;
25922;SDS011;13725;51.170;4.442;2023-12-22T14:32:49;11.70;;;1.67;;
25922;SDS011;13725;51.170;4.442;2023-12-22T14:35:15;8.98;;;1.17;;
25922;SDS011;13725;51.170;4.442;2023-12-22T14:37:41;6.20;;;0.93;;
25922;SDS011;13725;51.170;4.442;2023-12-22T14:40:08;6.47;;;1.00;;
25922;SDS011;13725;51.170;4.442;2023-12-22T14:42:34;6.43;;;1.17;;
25922;SDS011;13725;51.170;4.442;2023-12-22T14:45:00;9.55;;;1.55;;
25922;SDS011;13725;51.170;4.442;2023-12-22T14:47:29;9.93;;;1.48;;